Bowler, Wisconsin
Current Conditions -  °F | °C
As of 3:15 PM on Friday 26 Dec 2014 (Local Time) from KCLI Reporting Station
Haze Haze  
Wind Chill: 32°   Ceiling: 200
Heat Index: 32°   Visibility: 4mi
Dew Point: 32°   Wind: 3mph
Humidity: 100%   Direction: 360°N
Pressure: 29.98"   Gusts: NA
Location:  44.86°N, 88.98°W
Report Text: KCLI 262115Z AUTO 36003KT 4SM BR OVC002 00/00 A2998 RMK AO2
Loading
Personal Weather Stations






























Interactive Weather Map New forecast layout! Learn more

10-Day Weather Forecast

Advertisements
Track Severe Weather on mobile